Time;durP1;ratioP1;P1;durP2;ratioP2;P2;SDS_P1;SDS_P2;PMS_P1;PMS_P2;Temp;Humidity;BMP_temperature;BMP_pressure;BME280_temperature;BME280_humidity;BME280_pressure;Samples;Min_cycle;Max_cycle;Signal;HPM_P1;HPM_P2
2023/10/29 00:00:11;;;;;;;0.60;0.60;;;;;;;;;;1030360;28;20045;-73
2023/10/29 00:00:43;;;;;;;0.57;0.57;;;;;;;;;;1027165;28;20043;-73
2023/10/29 00:01:13;;;;;;;2.65;2.45;;;;;;;;;;1030952;28;20489;-73
2023/10/29 00:01:44;;;;;;;0.70;0.70;;;;;;;;;;1027020;28;20038;-73
2023/10/29 00:02:14;;;;;;;0.52;0.52;;;;;;;;;;1027324;28;20015;-73
2023/10/29 00:02:45;;;;;;;3.45;1.92;;;;;;;;;;1031408;28;20589;-73
2023/10/29 00:03:15;;;;;;;1.45;1.30;;;;;;;;;;1031270;28;20514;-73
2023/10/29 00:03:46;;;;;;;0.93;0.93;;;;;;;;;;1031506;28;20031;-73
2023/10/29 00:04:16;;;;;;;3.58;1.85;;;;;;;;;;1031425;28;20375;-73
2023/10/29 00:04:47;;;;;;;0.43;0.43;;;;;;;;;;1030037;28;20513;-73
2023/10/29 00:05:18;;;;;;;0.65;0.65;;;;;;;;;;1031227;28;20018;-73
2023/10/29 00:05:49;;;;;;;2.20;1.98;;;;;;;;;;1031076;28;20034;-73
2023/10/29 00:06:19;;;;;;;1.20;0.60;;;;;;;;;;1031381;28;20026;-73
2023/10/29 00:06:50;;;;;;;1.02;1.02;;;;;;;;;;1031031;28;20482;-73
2023/10/29 00:07:20;;;;;;;0.60;0.60;;;;;;;;;;1031371;28;20026;-73
2023/10/29 00:07:51;;;;;;;1.58;1.48;;;;;;;;;;1031440;28;20092;-73
2023/10/29 00:08:21;;;;;;;2.08;1.08;;;;;;;;;;1030393;28;20101;-73
2023/10/29 00:08:52;;;;;;;1.27;1.17;;;;;;;;;;1030337;28;20033;-73
2023/10/29 00:09:22;;;;;;;1.63;1.52;;;;;;;;;;1031354;28;20150;-73
2023/10/29 00:09:53;;;;;;;1.25;1.15;;;;;;;;;;1031445;28;20042;-73
2023/10/29 00:10:24;;;;;;;0.88;0.88;;;;;;;;;;1035837;28;20722;-73
2023/10/29 00:10:54;;;;;;;13.70;1.02;;;;;;;;;;1035419;28;20076;-73
2023/10/29 00:11:25;;;;;;;2.75;2.58;;;;;;;;;;1035533;28;20108;-73
2023/10/29 00:11:56;;;;;;;0.95;0.95;;;;;;;;;;1034054;28;20026;-73
2023/10/29 00:12:26;;;;;;;5.28;1.05;;;;;;;;;;1031297;28;20113;-73
2023/10/29 00:12:57;;;;;;;1.67;1.30;;;;;;;;;;1031942;28;20406;-73
2023/10/29 00:13:27;;;;;;;0.60;0.55;;;;;;;;;;1031811;28;20030;-73
2023/10/29 00:13:59;;;;;;;1.48;1.38;;;;;;;;;;1031809;28;20482;-73
2023/10/29 00:14:30;;;;;;;2.05;1.95;;;;;;;;;;1026931;28;20506;-73
2023/10/29 00:15:01;;;;;;;0.57;0.57;;;;;;;;;;1023870;29;20071;-73
2023/10/29 00:15:31;;;;;;;14.32;3.25;;;;;;;;;;1024104;28;20020;-73
2023/10/29 00:16:02;;;;;;;1.92;1.75;;;;;;;;;;1028024;28;20110;-73
2023/10/29 00:16:32;;;;;;;0.63;0.63;;;;;;;;;;1031875;28;20157;-73
2023/10/29 00:17:03;;;;;;;1.73;1.60;;;;;;;;;;1031835;28;20030;-73
2023/10/29 00:17:34;;;;;;;4.28;1.48;;;;;;;;;;1031460;28;20045;-73
2023/10/29 00:18:14;;;;;;;1.60;0.75;;;;;;;;;;1030265;28;20137;-73
2023/10/29 00:18:45;;;;;;;1.75;1.25;;;;;;;;;;1032235;28;20113;-73
2023/10/29 00:19:15;;;;;;;1.08;0.50;;;;;;;;;;1031629;28;20034;-73
2023/10/29 00:19:46;;;;;;;1.90;1.75;;;;;;;;;;1031792;28;20081;-73
2023/10/29 00:20:16;;;;;;;0.65;0.65;;;;;;;;;;1032135;28;20030;-73
2023/10/29 00:20:47;;;;;;;1.60;1.45;;;;;;;;;;1032173;28;20121;-73
2023/10/29 00:21:17;;;;;;;0.68;0.65;;;;;;;;;;1030558;28;20037;-73
2023/10/29 00:21:48;;;;;;;2.30;1.63;;;;;;;;;;1032805;28;20339;-73
2023/10/29 00:22:18;;;;;;;0.85;0.85;;;;;;;;;;1033784;28;20030;-73
2023/10/29 00:22:49;;;;;;;0.30;0.30;;;;;;;;;;1029261;28;20033;-73
2023/10/29 00:23:19;;;;;;;0.43;0.43;;;;;;;;;;1029514;28;20034;-73
2023/10/29 00:23:50;;;;;;;4.90;0.75;;;;;;;;;;1031550;28;20030;-73
2023/10/29 00:24:22;;;;;;;0.73;0.73;;;;;;;;;;1031707;28;20029;-73
2023/10/29 00:24:52;;;;;;;1.85;1.35;;;;;;;;;;1032092;28;20478;-73
2023/10/29 00:25:23;;;;;;;1.17;0.90;;;;;;;;;;1032053;28;20022;-73
2023/10/29 00:25:53;;;;;;;3.47;1.98;;;;;;;;;;1031937;28;20041;-73
2023/10/29 00:26:24;;;;;;;0.90;0.90;;;;;;;;;;1031689;28;20025;-73
2023/10/29 00:26:54;;;;;;;2.97;1.75;;;;;;;;;;1031907;28;20034;-73
2023/10/29 00:27:25;;;;;;;1.67;1.38;;;;;;;;;;1031126;28;20058;-73
2023/10/29 00:27:55;;;;;;;1.27;1.17;;;;;;;;;;1031903;28;20049;-73
2023/10/29 00:28:26;;;;;;;4.57;1.55;;;;;;;;;;1031916;28;20018;-73
2023/10/29 00:28:56;;;;;;;1.38;1.27;;;;;;;;;;1031367;28;20038;-73
2023/10/29 00:29:27;;;;;;;0.32;0.32;;;;;;;;;;1031645;28;20401;-73
2023/10/29 00:29:57;;;;;;;0.52;0.52;;;;;;;;;;1032089;28;20026;-73
2023/10/29 00:30:28;;;;;;;2.83;2.53;;;;;;;;;;1035659;28;20021;-73
2023/10/29 00:30:58;;;;;;;14.77;11.38;;;;;;;;;;1035747;28;20029;-73
2023/10/29 00:31:29;;;;;;;7.15;6.53;;;;;;;;;;1035579;28;20076;-73
2023/10/29 00:32:01;;;;;;;9.57;7.50;;;;;;;;;;1035601;28;20542;-73
2023/10/29 00:32:31;;;;;;;24.42;4.78;;;;;;;;;;1031574;28;20403;-73
2023/10/29 00:33:02;;;;;;;17.15;15.05;;;;;;;;;;1027689;28;20166;-73
2023/10/29 00:33:32;;;;;;;36.92;19.73;;;;;;;;;;1025441;28;20023;-73
2023/10/29 00:34:03;;;;;;;18.05;15.82;;;;;;;;;;1029704;28;20018;-73
2023/10/29 00:34:33;;;;;;;36.97;6.95;;;;;;;;;;1029802;28;20089;-73
2023/10/29 00:35:04;;;;;;;9.73;6.03;;;;;;;;;;1033106;28;20100;-73
2023/10/29 00:35:34;;;;;;;3.33;3.03;;;;;;;;;;1031522;28;20038;-73
2023/10/29 00:36:05;;;;;;;8.65;3.63;;;;;;;;;;1031704;28;20029;-73
2023/10/29 00:36:36;;;;;;;3.25;2.50;;;;;;;;;;1031653;28;20413;-73
2023/10/29 00:37:06;;;;;;;9.13;4.03;;;;;;;;;;1032084;28;20027;-73
2023/10/29 00:37:37;;;;;;;4.47;3.83;;;;;;;;;;1030794;28;20501;-73
2023/10/29 00:38:07;;;;;;;2.72;1.05;;;;;;;;;;1031646;28;20025;-73
2023/10/29 00:38:38;;;;;;;3.35;2.70;;;;;;;;;;1031673;28;20113;-73
2023/10/29 00:39:08;;;;;;;12.20;3.80;;;;;;;;;;1031582;28;20056;-73
2023/10/29 00:39:40;;;;;;;15.52;5.68;;;;;;;;;;1031765;28;20022;-73
2023/10/29 00:40:11;;;;;;;19.55;9.23;;;;;;;;;;1030983;28;20034;-73
2023/10/29 00:40:41;;;;;;;30.83;17.50;;;;;;;;;;1027161;28;20054;-73
2023/10/29 00:41:12;;;;;;;97.57;38.85;;;;;;;;;;1026979;28;20035;-73
2023/10/29 00:41:42;;;;;;;92.82;32.00;;;;;;;;;;1027395;28;20114;-73
2023/10/29 00:42:13;;;;;;;94.60;28.95;;;;;;;;;;1025700;28;20030;-73
2023/10/29 00:42:43;;;;;;;63.10;25.48;;;;;;;;;;1031143;28;20022;-73
2023/10/29 00:43:14;;;;;;;51.60;16.10;;;;;;;;;;1030738;28;20092;-73
2023/10/29 00:43:44;;;;;;;42.33;17.48;;;;;;;;;;1029896;28;20105;-73
2023/10/29 00:44:15;;;;;;;47.75;16.13;;;;;;;;;;1033505;28;20045;-73
2023/10/29 00:44:46;;;;;;;8.40;5.55;;;;;;;;;;1033995;28;20022;-73
2023/10/29 00:45:16;;;;;;;13.30;5.35;;;;;;;;;;1033536;28;20452;-73
2023/10/29 00:45:51;;;;;;;16.17;7.38;;;;;;;;;;1033585;28;20034;-73
2023/10/29 00:46:22;;;;;;;34.33;9.73;;;;;;;;;;1031835;28;20108;-73
2023/10/29 00:46:52;;;;;;;17.65;10.40;;;;;;;;;;1035105;28;20470;-73
2023/10/29 00:47:23;;;;;;;15.35;5.70;;;;;;;;;;1035414;28;20030;-73
2023/10/29 00:47:54;;;;;;;27.80;14.20;;;;;;;;;;1035330;28;20056;-73
2023/10/29 00:48:25;;;;;;;21.45;8.95;;;;;;;;;;1031493;28;20121;-73
2023/10/29 00:48:56;;;;;;;17.15;8.95;;;;;;;;;;1031655;28;20383;-73
2023/10/29 00:49:26;;;;;;;36.65;11.75;;;;;;;;;;1031567;28;20144;-73
2023/10/29 00:49:57;;;;;;;25.35;12.73;;;;;;;;;;1031648;28;20592;-73
2023/10/29 00:50:27;;;;;;;18.80;7.55;;;;;;;;;;1035278;28;20128;-73
2023/10/29 00:50:58;;;;;;;27.98;13.32;;;;;;;;;;1035583;28;20018;-73
2023/10/29 00:51:29;;;;;;;20.42;9.57;;;;;;;;;;1035566;28;20521;-73
2023/10/29 00:51:59;;;;;;;15.60;7.80;;;;;;;;;;1035820;28;20088;-73
2023/10/29 00:52:31;;;;;;;26.80;10.45;;;;;;;;;;1035673;28;20032;-73
2023/10/29 00:53:02;;;;;;;12.43;8.57;;;;;;;;;;1030859;28;20022;-73
2023/10/29 00:53:33;;;;;;;12.32;8.75;;;;;;;;;;1031238;28;20394;-73
2023/10/29 00:54:04;;;;;;;20.10;9.68;;;;;;;;;;1031420;28;20125;-73
2023/10/29 00:54:34;;;;;;;22.70;9.80;;;;;;;;;;1031612;28;20033;-73
2023/10/29 00:55:05;;;;;;;14.73;7.70;;;;;;;;;;1031995;28;20021;-73
2023/10/29 00:55:35;;;;;;;32.50;12.95;;;;;;;;;;1031564;28;20018;-73
2023/10/29 00:56:07;;;;;;;54.40;15.52;;;;;;;;;;1031766;28;20172;-73
2023/10/29 00:56:39;;;;;;;42.22;14.95;;;;;;;;;;1030925;28;20030;-73
2023/10/29 00:57:09;;;;;;;46.88;13.95;;;;;;;;;;1028033;28;20110;-73
2023/10/29 00:57:40;;;;;;;40.03;17.60;;;;;;;;;;1030939;28;20030;-72
2023/10/29 00:58:11;;;;;;;120.90;49.35;;;;;;;;;;1031222;28;20432;-72
2023/10/29 00:58:42;;;;;;;394.35;159.48;;;;;;;;;;1031244;28;20038;-72
2023/10/29 00:59:14;;;;;;;409.65;177.13;;;;;;;;;;1031702;28;20389;-72
2023/10/29 00:59:45;;;;;;;310.05;136.65;;;;;;;;;;1031453;28;20522;-72
2023/10/29 01:00:18;;;;;;;228.98;91.10;;;;;;;;;;1031690;28;20088;-72
2023/10/29 01:00:48;;;;;;;105.65;41.50;;;;;;;;;;1031924;28;20438;-73
2023/10/29 01:01:19;;;;;;;50.85;22.83;;;;;;;;;;1031901;28;20085;-73
2023/10/29 01:01:50;;;;;;;19.23;9.02;;;;;;;;;;1031860;28;20105;-73
2023/10/29 01:02:20;;;;;;;18.25;9.95;;;;;;;;;;1032012;28;20101;-73
2023/10/29 01:02:51;;;;;;;52.55;14.52;;;;;;;;;;1031998;28;20030;-73
2023/10/29 01:03:22;;;;;;;20.67;6.25;;;;;;;;;;1032274;28;20438;-73
2023/10/29 01:03:52;;;;;;;15.00;7.88;;;;;;;;;;1034741;28;20385;-73
2023/10/29 01:04:23;;;;;;;29.10;7.40;;;;;;;;;;1035767;28;20029;-73
2023/10/29 01:04:53;;;;;;;19.88;7.80;;;;;;;;;;1035425;28;20076;-73
2023/10/29 01:05:24;;;;;;;23.52;9.52;;;;;;;;;;1035336;28;20405;-73
2023/10/29 01:05:55;;;;;;;26.23;8.13;;;;;;;;;;1031865;28;20034;-73
2023/10/29 01:06:26;;;;;;;10.10;6.95;;;;;;;;;;1031929;28;20041;-73
2023/10/29 01:06:57;;;;;;;13.32;5.57;;;;;;;;;;1032068;28;20031;-73
2023/10/29 01:07:29;;;;;;;22.48;7.32;;;;;;;;;;1032016;28;20062;-73
2023/10/29 01:08:00;;;;;;;25.60;6.72;;;;;;;;;;1033631;28;20022;-73
2023/10/29 01:08:31;;;;;;;12.68;5.82;;;;;;;;;;1033148;28;20413;-73
2023/10/29 01:09:01;;;;;;;13.68;6.82;;;;;;;;;;1032708;28;20034;-73
2023/10/29 01:09:32;;;;;;;12.15;5.32;;;;;;;;;;1033447;28;20014;-73
2023/10/29 01:10:03;;;;;;;30.98;12.77;;;;;;;;;;1032146;28;20367;-73
2023/10/29 01:10:33;;;;;;;20.80;10.25;;;;;;;;;;1031946;28;20089;-73
2023/10/29 01:11:06;;;;;;;20.25;7.53;;;;;;;;;;1031703;28;20596;-73
2023/10/29 01:11:38;;;;;;;10.05;5.32;;;;;;;;;;1031532;28;20457;-73
2023/10/29 01:12:16;;;;;;;9.98;6.43;;;;;;;;;;1031650;28;20117;-73
2023/10/29 01:12:47;;;;;;;4.20;2.50;;;;;;;;;;1031697;28;20105;-73
2023/10/29 01:13:18;;;;;;;20.55;8.68;;;;;;;;;;1031812;28;20822;-73
2023/10/29 01:13:48;;;;;;;16.10;7.82;;;;;;;;;;1031673;28;20088;-73
2023/10/29 01:14:19;;;;;;;7.47;4.60;;;;;;;;;;1031487;28;20034;-73
2023/10/29 01:14:49;;;;;;;14.00;8.05;;;;;;;;;;1031548;28;20027;-73
2023/10/29 01:15:20;;;;;;;12.52;9.35;;;;;;;;;;1031314;28;20026;-73
2023/10/29 01:15:50;;;;;;;15.90;7.68;;;;;;;;;;1031974;28;20030;-73
2023/10/29 01:16:21;;;;;;;9.80;6.88;;;;;;;;;;1031974;28;20104;-73
2023/10/29 01:16:51;;;;;;;6.50;5.75;;;;;;;;;;1031761;28;20109;-73
2023/10/29 01:17:23;;;;;;;1.50;1.20;;;;;;;;;;1030399;28;20026;-73
2023/10/29 01:17:54;;;;;;;3.05;1.77;;;;;;;;;;1029675;28;20018;-73
2023/10/29 01:18:24;;;;;;;3.50;1.73;;;;;;;;;;1031700;28;20109;-73
2023/10/29 01:18:56;;;;;;;7.65;2.13;;;;;;;;;;1031672;28;20596;-73
2023/10/29 01:19:26;;;;;;;6.00;3.35;;;;;;;;;;1031664;28;20034;-73
2023/10/29 01:19:58;;;;;;;8.70;2.83;;;;;;;;;;1032092;28;20521;-73
2023/10/29 01:20:29;;;;;;;3.28;2.88;;;;;;;;;;1031951;28;20037;-73
2023/10/29 01:21:00;;;;;;;10.88;4.68;;;;;;;;;;1034402;28;20068;-73
2023/10/29 01:21:31;;;;;;;8.55;4.93;;;;;;;;;;1033068;28;20026;-73
2023/10/29 01:22:01;;;;;;;11.10;4.22;;;;;;;;;;1028608;28;20022;-73
2023/10/29 01:22:32;;;;;;;9.93;4.82;;;;;;;;;;1029687;28;20026;-73
2023/10/29 01:23:03;;;;;;;16.85;10.10;;;;;;;;;;1030269;28;20022;-73
2023/10/29 01:23:33;;;;;;;10.25;8.63;;;;;;;;;;1031284;28;20026;-73
2023/10/29 01:24:04;;;;;;;11.82;6.40;;;;;;;;;;1031717;28;20145;-73
2023/10/29 01:24:36;;;;;;;20.55;8.43;;;;;;;;;;1031585;28;20022;-73
2023/10/29 01:25:09;;;;;;;19.25;8.45;;;;;;;;;;1032013;28;20169;-73
2023/10/29 01:25:41;;;;;;;18.05;4.90;;;;;;;;;;1031026;28;20073;-73
2023/10/29 01:26:11;;;;;;;16.25;5.65;;;;;;;;;;1031224;28;20085;-73
2023/10/29 01:26:42;;;;;;;7.07;4.18;;;;;;;;;;1031672;28;20089;-73
2023/10/29 01:27:13;;;;;;;10.98;5.57;;;;;;;;;;1031625;28;20018;-73
2023/10/29 01:27:44;;;;;;;14.75;3.50;;;;;;;;;;1032026;28;20030;-73
2023/10/29 01:28:16;;;;;;;10.38;7.30;;;;;;;;;;1032012;28;20018;-73
2023/10/29 01:28:46;;;;;;;15.80;7.32;;;;;;;;;;1031148;28;20038;-73
2023/10/29 01:29:17;;;;;;;9.63;6.28;;;;;;;;;;1031794;28;20022;-73
2023/10/29 01:29:47;;;;;;;20.30;12.48;;;;;;;;;;1031622;28;20058;-73
2023/10/29 01:30:18;;;;;;;7.50;5.00;;;;;;;;;;1031845;28;20031;-73
2023/10/29 01:30:48;;;;;;;16.70;8.82;;;;;;;;;;1031941;28;20137;-73
2023/10/29 01:31:19;;;;;;;15.82;9.75;;;;;;;;;;1031885;28;20029;-73
2023/10/29 01:31:49;;;;;;;13.98;9.07;;;;;;;;;;1031668;28;20193;-73
2023/10/29 01:32:20;;;;;;;8.52;5.82;;;;;;;;;;1031644;28;20026;-73
2023/10/29 01:32:50;;;;;;;3.85;3.50;;;;;;;;;;1031938;28;20036;-73
2023/10/29 01:33:21;;;;;;;13.90;4.95;;;;;;;;;;1031873;28;20117;-73
2023/10/29 01:33:52;;;;;;;4.82;2.42;;;;;;;;;;1032101;28;20070;-73
2023/10/29 01:34:22;;;;;;;7.95;3.35;;;;;;;;;;1032037;28;20407;-73
2023/10/29 01:34:53;;;;;;;2.45;2.25;;;;;;;;;;1030623;28;20033;-73
2023/10/29 01:35:23;;;;;;;2.13;1.17;;;;;;;;;;1031942;28;20018;-73
2023/10/29 01:35:54;;;;;;;2.88;1.58;;;;;;;;;;1035458;28;20064;-73
2023/10/29 01:36:24;;;;;;;12.80;2.47;;;;;;;;;;1035322;28;20085;-73
2023/10/29 01:36:55;;;;;;;6.47;2.65;;;;;;;;;;1034179;28;20065;-73
2023/10/29 01:37:25;;;;;;;6.50;2.50;;;;;;;;;;1033496;28;20117;-73
2023/10/29 01:37:56;;;;;;;3.75;2.80;;;;;;;;;;1031949;28;20033;-73
2023/10/29 01:38:26;;;;;;;3.63;3.33;;;;;;;;;;1031664;28;20137;-73
2023/10/29 01:38:57;;;;;;;2.47;2.28;;;;;;;;;;1036000;28;20087;-73
2023/10/29 01:39:27;;;;;;;1.92;1.83;;;;;;;;;;1033502;28;20375;-73
2023/10/29 01:39:58;;;;;;;0.82;0.82;;;;;;;;;;1034046;28;20525;-73
2023/10/29 01:40:28;;;;;;;5.15;2.25;;;;;;;;;;1033566;28;20051;-73
2023/10/29 01:40:59;;;;;;;4.10;3.17;;;;;;;;;;1027847;28;20474;-73
2023/10/29 01:41:30;;;;;;;0.98;0.95;;;;;;;;;;1027546;28;20037;-73
2023/10/29 01:42:01;;;;;;;0.52;0.52;;;;;;;;;;1022998;29;20023;-73
2023/10/29 01:42:31;;;;;;;1.65;1.55;;;;;;;;;;1019371;29;20031;-73
2023/10/29 01:43:02;;;;;;;0.20;0.20;;;;;;;;;;1023613;28;20023;-73
2023/10/29 01:43:32;;;;;;;2.92;2.38;;;;;;;;;;1027602;28;20394;-73
2023/10/29 01:44:03;;;;;;;1.77;1.67;;;;;;;;;;1031893;28;20045;-73
2023/10/29 01:44:34;;;;;;;1.67;1.58;;;;;;;;;;1035396;28;20029;-73
2023/10/29 01:45:04;;;;;;;3.38;3.10;;;;;;;;;;1035455;28;20472;-73
2023/10/29 01:45:36;;;;;;;2.47;2.38;;;;;;;;;;1035494;28;20030;-73
2023/10/29 01:46:07;;;;;;;2.08;1.92;;;;;;;;;;1034493;28;20592;-73
2023/10/29 01:46:38;;;;;;;11.57;2.95;;;;;;;;;;1035285;28;20026;-73
2023/10/29 01:47:09;;;;;;;1.05;1.05;;;;;;;;;;1031905;28;20042;-73
2023/10/29 01:47:39;;;;;;;7.32;2.53;;;;;;;;;;1031561;28;20031;-73
2023/10/29 01:48:10;;;;;;;3.60;2.75;;;;;;;;;;1032034;28;20022;-73
2023/10/29 01:48:41;;;;;;;2.85;1.88;;;;;;;;;;1031411;28;20080;-73
2023/10/29 01:49:11;;;;;;;1.65;1.55;;;;;;;;;;1031529;28;20500;-73
2023/10/29 01:49:42;;;;;;;1.15;1.13;;;;;;;;;;1031561;28;20560;-73
2023/10/29 01:50:13;;;;;;;4.47;1.17;;;;;;;;;;1031661;28;20026;-73
2023/10/29 01:50:43;;;;;;;2.90;0.95;;;;;;;;;;1031603;28;20073;-73
2023/10/29 01:51:14;;;;;;;0.90;0.70;;;;;;;;;;1031269;28;20096;-73
2023/10/29 01:51:44;;;;;;;0.52;0.52;;;;;;;;;;1031651;28;20537;-73
2023/10/29 01:52:15;;;;;;;0.80;0.77;;;;;;;;;;1031039;28;20037;-73
2023/10/29 01:52:46;;;;;;;1.92;1.83;;;;;;;;;;1031073;28;20033;-73
2023/10/29 01:53:16;;;;;;;3.72;2.08;;;;;;;;;;1034887;28;20021;-73
2023/10/29 01:53:47;;;;;;;1.40;1.33;;;;;;;;;;1036198;28;20147;-73
2023/10/29 01:54:17;;;;;;;4.03;3.05;;;;;;;;;;1035391;28;20062;-73
2023/10/29 01:54:48;;;;;;;26.30;2.28;;;;;;;;;;1034906;28;20409;-73
2023/10/29 01:55:18;;;;;;;1.88;1.77;;;;;;;;;;1031779;28;20110;-73
2023/10/29 01:55:49;;;;;;;2.50;2.30;;;;;;;;;;1032037;28;20100;-73
2023/10/29 01:56:20;;;;;;;4.85;2.35;;;;;;;;;;1031767;28;20037;-73
2023/10/29 01:56:50;;;;;;;1.92;1.80;;;;;;;;;;1033271;28;20036;-73
2023/10/29 01:57:21;;;;;;;2.63;1.65;;;;;;;;;;1032687;28;20029;-73
2023/10/29 01:57:52;;;;;;;1.45;1.13;;;;;;;;;;1032543;28;20014;-73
2023/10/29 01:58:22;;;;;;;9.50;1.75;;;;;;;;;;1033378;28;20533;-73
2023/10/29 01:58:53;;;;;;;0.80;0.80;;;;;;;;;;1029054;28;20022;-73
2023/10/29 01:59:23;;;;;;;7.47;3.97;;;;;;;;;;1029384;28;20026;-73
2023/10/29 01:59:54;;;;;;;2.17;2.00;;;;;;;;;;1033808;28;20026;-73
2023/10/29 02:00:24;;;;;;;1.88;1.63;;;;;;;;;;1029179;28;20030;-73
2023/10/29 02:00:55;;;;;;;2.22;1.95;;;;;;;;;;1030889;28;20454;-73
2023/10/29 02:01:25;;;;;;;6.93;4.32;;;;;;;;;;1029296;28;20027;-73
2023/10/29 02:01:56;;;;;;;2.65;2.45;;;;;;;;;;1029782;28;20511;-73
2023/10/29 02:02:26;;;;;;;7.18;1.20;;;;;;;;;;1033630;28;20026;-73
2023/10/29 02:02:57;;;;;;;5.05;2.00;;;;;;;;;;1033516;28;20155;-73
2023/10/29 02:03:27;;;;;;;0.57;0.57;;;;;;;;;;1032006;28;20030;-73
2023/10/29 02:03:58;;;;;;;2.75;1.88;;;;;;;;;;1032238;28;20049;-73
2023/10/29 02:04:30;;;;;;;0.80;0.80;;;;;;;;;;1031839;28;20030;-73
2023/10/29 02:05:04;;;;;;;2.17;1.60;;;;;;;;;;1033599;28;20474;-73
2023/10/29 02:05:34;;;;;;;1.95;1.85;;;;;;;;;;1035071;28;20033;-73
2023/10/29 02:06:14;;;;;;;0.88;0.88;;;;;;;;;;1034904;28;20026;-73
2023/10/29 02:06:46;;;;;;;1.27;0.65;;;;;;;;;;1033394;28;20026;-73
2023/10/29 02:07:16;;;;;;;1.42;1.17;;;;;;;;;;1031992;28;20121;-73
2023/10/29 02:07:47;;;;;;;2.45;2.22;;;;;;;;;;1035532;28;20059;-73
2023/10/29 02:08:18;;;;;;;6.15;4.35;;;;;;;;;;1035110;28;20113;-73
2023/10/29 02:08:48;;;;;;;0.90;0.90;;;;;;;;;;1034864;28;20120;-73
2023/10/29 02:09:20;;;;;;;2.20;2.05;;;;;;;;;;1035164;28;20029;-73
2023/10/29 02:09:50;;;;;;;0.60;0.60;;;;;;;;;;1031684;28;20031;-73
2023/10/29 02:10:21;;;;;;;1.58;1.48;;;;;;;;;;1033290;28;20109;-73
2023/10/29 02:10:51;;;;;;;2.88;2.67;;;;;;;;;;1033086;28;20048;-73
2023/10/29 02:11:22;;;;;;;2.25;2.05;;;;;;;;;;1033150;28;20490;-73
2023/10/29 02:11:52;;;;;;;1.58;1.48;;;;;;;;;;1033137;28;20033;-73
2023/10/29 02:12:23;;;;;;;1.08;0.98;;;;;;;;;;1029789;28;20018;-73
2023/10/29 02:12:54;;;;;;;2.15;1.92;;;;;;;;;;1030483;28;20158;-73
2023/10/29 02:13:24;;;;;;;1.67;0.98;;;;;;;;;;1031655;28;20026;-73
2023/10/29 02:13:55;;;;;;;0.60;0.60;;;;;;;;;;1031824;28;20026;-73
2023/10/29 02:14:25;;;;;;;2.92;2.17;;;;;;;;;;1031717;28;20494;-73
2023/10/29 02:14:56;;;;;;;7.47;2.25;;;;;;;;;;1031577;28;20030;-73
2023/10/29 02:15:26;;;;;;;2.03;1.92;;;;;;;;;;1031637;28;20034;-73
2023/10/29 02:15:57;;;;;;;2.10;1.95;;;;;;;;;;1031764;28;20077;-73
2023/10/29 02:16:28;;;;;;;3.80;3.08;;;;;;;;;;1031655;28;20030;-73
2023/10/29 02:16:58;;;;;;;2.80;2.60;;;;;;;;;;1031648;28;20069;-73
2023/10/29 02:17:29;;;;;;;3.58;2.67;;;;;;;;;;1034731;28;20100;-73
2023/10/29 02:17:59;;;;;;;1.95;1.80;;;;;;;;;;1034353;28;20027;-73
2023/10/29 02:18:30;;;;;;;2.58;1.77;;;;;;;;;;1035038;28;20549;-73
2023/10/29 02:19:00;;;;;;;0.68;0.68;;;;;;;;;;1034440;28;20034;-73
2023/10/29 02:19:31;;;;;;;0.85;0.85;;;;;;;;;;1031562;28;20030;-73
2023/10/29 02:20:01;;;;;;;6.22;2.55;;;;;;;;;;1031445;28;20125;-73
2023/10/29 02:20:32;;;;;;;1.27;1.23;;;;;;;;;;1031512;28;20022;-73
2023/10/29 02:21:03;;;;;;;0.75;0.75;;;;;;;;;;1031533;28;20395;-73
2023/10/29 02:21:36;;;;;;;2.47;1.73;;;;;;;;;;1031629;28;20018;-73
2023/10/29 02:22:07;;;;;;;1.52;1.33;;;;;;;;;;1031969;28;20475;-73
2023/10/29 02:22:37;;;;;;;2.15;1.85;;;;;;;;;;1030529;28;20030;-73
2023/10/29 02:23:08;;;;;;;6.95;1.33;;;;;;;;;;1031536;28;20022;-73
2023/10/29 02:23:38;;;;;;;1.10;1.08;;;;;;;;;;1031382;28;21242;-73
2023/10/29 02:24:09;;;;;;;18.48;2.05;;;;;;;;;;1031783;28;20030;-73
2023/10/29 02:24:39;;;;;;;4.75;1.88;;;;;;;;;;1032960;28;20491;-73
2023/10/29 02:25:10;;;;;;;0.77;0.77;;;;;;;;;;1032284;28;20112;-73
2023/10/29 02:25:40;;;;;;;7.80;1.88;;;;;;;;;;1033135;28;20028;-73
2023/10/29 02:26:11;;;;;;;1.40;1.35;;;;;;;;;;1033305;28;20034;-73
2023/10/29 02:26:42;;;;;;;2.08;1.38;;;;;;;;;;1031619;28;20018;-73
2023/10/29 02:27:12;;;;;;;3.10;2.00;;;;;;;;;;1031001;28;20570;-73
2023/10/29 02:27:43;;;;;;;1.17;1.17;;;;;;;;;;1031526;28;20018;-73
2023/10/29 02:28:13;;;;;;;0.98;0.98;;;;;;;;;;1031031;28;20037;-73
2023/10/29 02:28:43;;;;;;;4.65;3.53;;;;;;;;;;1035315;28;20049;-73
2023/10/29 02:29:14;;;;;;;2.30;0.95;;;;;;;;;;1035241;28;20026;-73
2023/10/29 02:29:45;;;;;;;1.35;1.33;;;;;;;;;;1035160;28;20298;-73
2023/10/29 02:30:16;;;;;;;0.65;0.65;;;;;;;;;;1035173;28;20024;-73
2023/10/29 02:30:46;;;;;;;4.30;2.97;;;;;;;;;;1030942;28;20117;-73
2023/10/29 02:31:17;;;;;;;3.85;1.85;;;;;;;;;;1031428;28;20034;-73
2023/10/29 02:31:48;;;;;;;1.77;1.65;;;;;;;;;;1031702;28;20022;-73
2023/10/29 02:32:18;;;;;;;1.42;1.33;;;;;;;;;;1033071;28;20168;-73
2023/10/29 02:32:49;;;;;;;2.15;2.05;;;;;;;;;;1033217;28;20113;-73
2023/10/29 02:33:19;;;;;;;4.55;2.83;;;;;;;;;;1032768;28;20030;-73
2023/10/29 02:33:50;;;;;;;3.85;1.65;;;;;;;;;;1032867;28;20555;-73
2023/10/29 02:34:20;;;;;;;0.50;0.50;;;;;;;;;;1031460;28;20084;-73
2023/10/29 02:34:51;;;;;;;1.40;1.30;;;;;;;;;;1031300;28;20026;-73
2023/10/29 02:35:21;;;;;;;2.60;2.40;;;;;;;;;;1031507;28;20113;-73
2023/10/29 02:35:52;;;;;;;1.52;1.42;;;;;;;;;;1030430;28;20014;-73
2023/10/29 02:36:22;;;;;;;2.40;2.28;;;;;;;;;;1030265;28;20030;-73
2023/10/29 02:36:53;;;;;;;3.88;2.35;;;;;;;;;;1031185;28;20080;-73
2023/10/29 02:37:23;;;;;;;0.75;0.75;;;;;;;;;;1031468;28;20467;-73
2023/10/29 02:37:54;;;;;;;1.65;1.55;;;;;;;;;;1031624;28;20054;-73
2023/10/29 02:38:24;;;;;;;1.80;1.70;;;;;;;;;;1031602;28;20057;-73
2023/10/29 02:38:55;;;;;;;6.05;1.23;;;;;;;;;;1031597;28;20057;-73
2023/10/29 02:39:26;;;;;;;3.67;2.80;;;;;;;;;;1031636;28;20026;-73
2023/10/29 02:39:56;;;;;;;1.15;1.08;;;;;;;;;;1035488;28;20030;-73
2023/10/29 02:40:27;;;;;;;2.28;2.17;;;;;;;;;;1035342;28;20429;-73
2023/10/29 02:40:57;;;;;;;1.17;0.98;;;;;;;;;;1035351;28;20030;-73
2023/10/29 02:41:27;;;;;;;3.45;3.15;;;;;;;;;;1035264;28;20029;-73
2023/10/29 02:41:58;;;;;;;1.48;1.38;;;;;;;;;;1031440;28;20018;-73
2023/10/29 02:42:28;;;;;;;2.20;2.10;;;;;;;;;;1030021;28;20081;-73
2023/10/29 02:42:59;;;;;;;0.20;0.20;;;;;;;;;;1031168;28;20112;-73
2023/10/29 02:43:29;;;;;;;1.30;1.27;;;;;;;;;;1031580;28;20015;-73
2023/10/29 02:44:00;;;;;;;11.48;4.88;;;;;;;;;;1031756;28;20121;-73
2023/10/29 02:44:30;;;;;;;2.50;1.75;;;;;;;;;;1031603;28;20728;-73
2023/10/29 02:45:01;;;;;;;1.35;1.30;;;;;;;;;;1035160;28;20025;-73
2023/10/29 02:45:32;;;;;;;19.75;1.75;;;;;;;;;;1035314;28;20153;-73
2023/10/29 02:46:03;;;;;;;12.85;2.40;;;;;;;;;;1035515;28;20032;-73
2023/10/29 02:46:37;;;;;;;1.05;0.93;;;;;;;;;;1035024;28;20025;-73
2023/10/29 02:47:07;;;;;;;2.90;2.67;;;;;;;;;;1031057;28;20491;-73
2023/10/29 02:47:38;;;;;;;2.50;2.33;;;;;;;;;;1030917;28;20050;-73
2023/10/29 02:48:08;;;;;;;2.05;1.63;;;;;;;;;;1031471;28;20031;-73
2023/10/29 02:48:39;;;;;;;1.85;1.63;;;;;;;;;;1031000;28;20069;-73
2023/10/29 02:49:09;;;;;;;4.40;2.42;;;;;;;;;;1031195;28;20033;-73
2023/10/29 02:49:40;;;;;;;1.38;1.27;;;;;;;;;;1031558;28;20077;-73
2023/10/29 02:50:10;;;;;;;1.52;1.42;;;;;;;;;;1031772;28;20026;-73
2023/10/29 02:50:41;;;;;;;1.08;0.98;;;;;;;;;;1031601;28;20022;-73
2023/10/29 02:51:12;;;;;;;12.15;1.90;;;;;;;;;;1030743;28;20030;-73
2023/10/29 02:51:42;;;;;;;11.30;2.17;;;;;;;;;;1031600;28;20044;-73
2023/10/29 02:52:13;;;;;;;0.90;0.90;;;;;;;;;;1031621;28;20120;-72
2023/10/29 02:52:43;;;;;;;7.25;2.40;;;;;;;;;;1031841;28;20391;-73
2023/10/29 02:53:14;;;;;;;10.88;2.38;;;;;;;;;;1031648;28;20023;-73
2023/10/29 02:53:44;;;;;;;0.70;0.70;;;;;;;;;;1031329;28;20026;-73
2023/10/29 02:54:15;;;;;;;7.60;1.63;;;;;;;;;;1031557;28;20497;-73
2023/10/29 02:54:45;;;;;;;3.35;3.05;;;;;;;;;;1031029;28;20018;-73
2023/10/29 02:55:16;;;;;;;1.00;1.00;;;;;;;;;;1031301;28;20030;-73
2023/10/29 02:55:46;;;;;;;0.73;0.73;;;;;;;;;;1031695;28;20508;-73
2023/10/29 02:56:17;;;;;;;11.57;1.42;;;;;;;;;;1031529;28;20022;-73
2023/10/29 02:56:47;;;;;;;8.20;1.00;;;;;;;;;;1031599;28;20019;-72
2023/10/29 02:57:18;;;;;;;0.90;0.90;;;;;;;;;;1030235;28;20053;-72
2023/10/29 02:57:48;;;;;;;4.78;1.98;;;;;;;;;;1032087;28;20018;-72
2023/10/29 02:58:19;;;;;;;14.13;1.60;;;;;;;;;;1031520;28;20036;-73
2023/10/29 02:58:49;;;;;;;1.92;1.15;;;;;;;;;;1031493;28;20030;-73
2023/10/29 02:59:23;;;;;;;1.95;1.85;;;;;;;;;;1031511;28;20037;-73
2023/10/29 02:59:53;;;;;;;2.45;2.05;;;;;;;;;;1031045;28;20409;-73
2023/10/29 03:00:24;;;;;;;3.95;3.55;;;;;;;;;;1030908;28;20062;-73
2023/10/29 03:01:03;;;;;;;2.08;1.60;;;;;;;;;;1031181;28;20026;-73
2023/10/29 03:01:33;;;;;;;3.30;2.72;;;;;;;;;;1031025;28;20635;-73
2023/10/29 03:02:04;;;;;;;3.70;2.35;;;;;;;;;;1031767;28;20049;-73
2023/10/29 03:02:34;;;;;;;1.80;0.70;;;;;;;;;;1033042;28;20022;-73
2023/10/29 03:03:05;;;;;;;3.58;2.05;;;;;;;;;;1033328;28;20156;-73
2023/10/29 03:03:39;;;;;;;2.10;2.00;;;;;;;;;;1032954;28;20041;-73